createdAt,value
2023-03-06T00:00:23.227Z,69.40
2023-03-06T00:02:52.289Z,68.88
2023-03-06T00:05:20.830Z,69.00
2023-03-06T00:07:49.019Z,68.92
2023-03-06T00:10:19.641Z,69.25
2023-03-06T00:12:47.734Z,68.53
2023-03-06T00:15:16.176Z,68.03
2023-03-06T00:17:45.582Z,66.85
2023-03-06T00:20:15.100Z,66.65
2023-03-06T00:22:43.881Z,65.27
2023-03-06T00:25:15.316Z,64.99
2023-03-06T00:27:43.764Z,66.87
2023-03-06T00:30:14.632Z,66.78
2023-03-06T00:32:43.873Z,67.27
2023-03-06T00:35:14.461Z,67.02
2023-03-06T00:37:45.157Z,66.89
2023-03-06T00:40:15.876Z,67.49
2023-03-06T00:42:44.247Z,67.96
2023-03-06T00:45:12.907Z,67.91
2023-03-06T00:47:41.096Z,67.91
2023-03-06T00:50:10.626Z,67.45
2023-03-06T00:52:42.012Z,66.53
2023-03-06T00:55:10.873Z,66.66
2023-03-06T00:57:40.332Z,67.00
2023-03-06T01:00:10.978Z,67.01
2023-03-06T01:02:39.313Z,67.30
2023-03-06T01:05:08.690Z,67.48
2023-03-06T01:07:39.885Z,67.67
2023-03-06T01:10:09.061Z,67.80
2023-03-06T01:12:37.104Z,67.76
2023-03-06T01:15:06.230Z,67.12
2023-03-06T01:17:34.171Z,66.17
2023-03-06T01:20:04.428Z,66.25
2023-03-06T01:22:32.485Z,66.18
2023-03-06T01:25:02.268Z,66.03
2023-03-06T01:27:31.285Z,66.05
2023-03-06T01:29:59.289Z,67.21
2023-03-06T01:32:27.360Z,68.08
2023-03-06T01:34:55.673Z,68.82
2023-03-06T01:37:23.685Z,69.05
2023-03-06T01:39:51.754Z,69.34
2023-03-06T01:42:21.059Z,68.42
2023-03-06T01:45:02.993Z,68.91
2023-03-06T01:47:31.781Z,68.62
2023-03-06T01:50:03.800Z,68.66
2023-03-06T01:52:34.754Z,68.59
2023-03-06T01:55:06.584Z,68.81
2023-03-06T01:57:39.599Z,68.23
2023-03-06T02:00:11.174Z,69.12
2023-03-06T02:02:46.472Z,68.37
2023-03-06T02:05:15.031Z,68.52
2023-03-06T02:07:44.247Z,68.51
2023-03-06T02:10:15.174Z,67.57
2023-03-06T02:12:46.159Z,67.68
2023-03-06T02:15:17.036Z,68.15
2023-03-06T02:17:47.582Z,67.00
2023-03-06T02:20:26.213Z,67.05
2023-03-06T02:23:04.279Z,67.55
2023-03-06T02:25:39.258Z,67.54
2023-03-06T02:28:09.760Z,67.54
2023-03-06T02:30:38.539Z,67.25
2023-03-06T02:33:07.297Z,67.70
2023-03-06T02:35:37.368Z,66.72
2023-03-06T02:38:09.891Z,66.80
2023-03-06T02:40:39.405Z,66.92
2023-03-06T02:43:08.764Z,66.14
2023-03-06T02:45:39.181Z,66.71
2023-03-06T02:48:08.381Z,66.58
2023-03-06T02:50:36.445Z,66.92
2023-03-06T02:53:04.531Z,67.38
2023-03-06T02:55:32.909Z,67.62
2023-03-06T02:58:04.419Z,66.99
2023-03-06T03:00:33.829Z,65.92
2023-03-06T03:03:05.029Z,66.16
2023-03-06T03:05:33.713Z,66.36
2023-03-06T03:08:09.436Z,66.16
2023-03-06T03:10:37.629Z,66.33
2023-03-06T03:13:07.061Z,66.56
2023-03-06T03:15:36.321Z,66.98
2023-03-06T03:18:04.995Z,66.86
2023-03-06T03:20:33.033Z,67.05
2023-03-06T03:23:01.043Z,66.78
2023-03-06T03:25:29.305Z,67.07
2023-03-06T03:27:59.361Z,66.41
2023-03-06T03:30:29.462Z,66.23
2023-03-06T03:32:57.781Z,65.86
2023-03-06T03:35:26.901Z,65.83
2023-03-06T03:37:55.376Z,66.20
2023-03-06T03:40:23.841Z,66.45
2023-03-06T03:42:52.631Z,66.52
2023-03-06T03:45:21.388Z,65.44
2023-03-06T03:47:51.332Z,65.95
2023-03-06T03:50:20.493Z,66.04
2023-03-06T03:52:48.957Z,67.17
2023-03-06T03:55:17.128Z,66.95
2023-03-06T03:57:45.289Z,67.58
2023-03-06T04:00:16.744Z,67.47
2023-03-06T04:02:56.429Z,67.47
2023-03-06T04:05:33.337Z,67.96
2023-03-06T04:08:03.329Z,67.87
2023-03-06T04:10:34.335Z,68.18
2023-03-06T04:13:03.490Z,67.24
2023-03-06T04:15:32.061Z,68.03
2023-03-06T04:18:03.217Z,66.99
2023-03-06T04:20:31.388Z,67.59
2023-03-06T04:23:01.389Z,67.71
2023-03-06T04:25:29.659Z,67.00
2023-03-06T04:27:59.541Z,67.68
2023-03-06T04:30:28.854Z,67.30
2023-03-06T04:32:56.955Z,66.72
2023-03-06T04:35:26.660Z,67.48
2023-03-06T04:38:02.290Z,66.33
2023-03-06T04:40:33.891Z,65.99
2023-03-06T04:43:03.203Z,65.39
2023-03-06T04:45:32.494Z,65.11
2023-03-06T04:48:00.499Z,65.48
2023-03-06T04:50:32.714Z,65.66
2023-03-06T04:53:01.768Z,65.29
2023-03-06T04:55:30.541Z,64.75
2023-03-06T04:57:59.219Z,65.05
2023-03-06T05:00:31.525Z,65.00
2023-03-06T05:03:01.466Z,64.60
2023-03-06T05:05:31.215Z,64.68
2023-03-06T05:07:59.274Z,64.63
2023-03-06T05:10:27.238Z,64.54
2023-03-06T05:12:55.252Z,64.69
2023-03-06T05:15:23.211Z,64.60
2023-03-06T05:17:51.281Z,64.43
2023-03-06T05:20:19.461Z,64.36
2023-03-06T05:22:48.877Z,64.58
2023-03-06T05:25:16.850Z,64.16
2023-03-06T05:27:45.073Z,64.10
2023-03-06T05:30:14.879Z,63.44
2023-03-06T05:32:42.911Z,63.38
2023-03-06T05:35:18.318Z,63.46
2023-03-06T05:37:46.469Z,62.81
2023-03-06T05:40:17.317Z,62.65
2023-03-06T05:42:45.746Z,62.10
2023-03-06T05:45:14.257Z,61.95
2023-03-06T05:47:42.803Z,63.02
2023-03-06T05:50:12.207Z,62.57
2023-03-06T05:52:40.813Z,62.56
2023-03-06T05:55:11.707Z,62.71
2023-03-06T05:57:42.336Z,62.06
2023-03-06T06:00:11.767Z,60.86
2023-03-06T06:02:45.127Z,60.31
2023-03-06T06:05:14.187Z,60.34
2023-03-06T06:07:42.833Z,60.06
2023-03-06T06:10:13.043Z,60.09
2023-03-06T06:12:42.606Z,59.29
2023-03-06T06:15:11.315Z,59.40
2023-03-06T06:17:39.260Z,58.96
2023-03-06T06:20:08.537Z,59.22
2023-03-06T06:22:38.366Z,59.60
2023-03-06T06:25:07.630Z,59.56
2023-03-06T06:27:35.905Z,59.84
2023-03-06T06:30:06.941Z,59.64
2023-03-06T06:32:35.062Z,59.65
2023-03-06T06:35:03.794Z,59.60
2023-03-06T06:37:32.132Z,60.40
2023-03-06T06:40:00.273Z,60.50
2023-03-06T06:42:35.200Z,60.64
2023-03-06T06:45:09.106Z,60.91
2023-03-06T06:47:41.120Z,60.24
2023-03-06T06:50:12.500Z,60.12
2023-03-06T06:52:40.786Z,60.48
2023-03-06T06:55:10.364Z,60.43
2023-03-06T06:57:38.600Z,60.38
2023-03-06T07:00:11.075Z,58.58
2023-03-06T07:02:39.200Z,54.00
2023-03-06T07:05:08.397Z,45.76
2023-03-06T07:07:38.434Z,41.75
2023-03-06T07:10:12.400Z,38.24
2023-03-06T07:12:40.498Z,35.47
2023-03-06T07:15:13.209Z,32.29
2023-03-06T07:17:41.398Z,30.58
2023-03-06T07:20:11.215Z,29.02
2023-03-06T07:22:50.225Z,27.77
2023-03-06T07:25:19.041Z,25.94
2023-03-06T07:27:53.383Z,24.23
2023-03-06T07:30:24.526Z,24.65
2023-03-06T07:32:56.435Z,25.40
2023-03-06T07:35:25.652Z,28.47
2023-03-06T07:37:54.602Z,30.99
2023-03-06T07:40:23.011Z,32.92
2023-03-06T07:42:51.125Z,34.34
2023-03-06T07:45:27.053Z,37.03
2023-03-06T07:47:55.365Z,39.46
2023-03-06T07:50:23.681Z,41.58
2023-03-06T07:52:52.813Z,42.60
2023-03-06T07:55:21.349Z,43.41
2023-03-06T07:57:51.682Z,44.69
2023-03-06T08:00:20.663Z,45.09
2023-03-06T08:02:50.278Z,46.46
2023-03-06T08:05:18.922Z,46.57
2023-03-06T08:07:47.098Z,47.25
2023-03-06T08:10:17.153Z,48.22
2023-03-06T08:12:45.444Z,48.31
2023-03-06T08:15:14.360Z,48.38
2023-03-06T08:17:42.550Z,48.46
2023-03-06T08:20:14.439Z,49.03
2023-03-06T08:22:42.587Z,48.00
2023-03-06T08:25:11.696Z,47.50
2023-03-06T08:27:41.069Z,46.64
2023-03-06T08:30:10.665Z,47.46
2023-03-06T08:32:39.276Z,45.98
2023-03-06T08:35:08.069Z,45.74
2023-03-06T08:37:37.863Z,45.33
2023-03-06T08:40:06.864Z,44.80
2023-03-06T08:42:34.871Z,44.82
2023-03-06T08:45:03.018Z,45.03
2023-03-06T08:47:31.711Z,45.83
2023-03-06T08:50:00.787Z,45.36
2023-03-06T08:52:29.197Z,45.63
2023-03-06T08:55:03.505Z,45.61
2023-03-06T08:57:31.992Z,47.06
2023-03-06T09:00:00.230Z,47.66
2023-03-06T09:02:28.394Z,47.57
2023-03-06T09:04:56.576Z,47.23
2023-03-06T09:07:24.606Z,48.81
2023-03-06T09:09:58.382Z,48.54
2023-03-06T09:12:28.116Z,48.27
2023-03-06T09:14:57.481Z,48.66
2023-03-06T09:17:25.610Z,47.69
2023-03-06T09:19:53.701Z,48.33
2023-03-06T09:22:21.863Z,48.57
2023-03-06T09:24:50.753Z,48.63
2023-03-06T09:27:20.196Z,48.73
2023-03-06T09:29:48.205Z,48.87
2023-03-06T09:32:16.280Z,49.37
2023-03-06T09:34:44.311Z,49.86
2023-03-06T09:37:12.342Z,49.57
2023-03-06T09:39:40.524Z,49.54
2023-03-06T09:42:12.255Z,50.01
2023-03-06T09:44:43.472Z,50.25
2023-03-06T09:47:41.610Z,49.99
2023-03-06T09:50:27.590Z,49.96
2023-03-06T09:53:17.892Z,50.03
2023-03-06T09:55:51.566Z,50.01
2023-03-06T09:58:22.963Z,50.13
2023-03-06T10:00:58.939Z,49.73
2023-03-06T10:03:31.740Z,50.21
2023-03-06T10:06:05.161Z,50.46
2023-03-06T10:08:44.124Z,50.06
2023-03-06T10:11:15.782Z,48.86
2023-03-06T10:13:47.265Z,49.03
2023-03-06T10:16:29.312Z,48.86
2023-03-06T10:19:02.418Z,48.70
2023-03-06T10:21:43.519Z,48.12
2023-03-06T10:24:25.051Z,48.51
2023-03-06T10:27:00.587Z,47.41
2023-03-06T10:29:47.632Z,47.27
2023-03-06T10:32:39.553Z,46.95
2023-03-06T10:35:19.098Z,46.20
2023-03-06T10:37:47.344Z,45.66
2023-03-06T10:40:20.370Z,45.05
2023-03-06T10:42:52.058Z,44.20
2023-03-06T10:45:24.345Z,44.34
2023-03-06T10:48:11.032Z,43.92
2023-03-06T10:50:39.545Z,43.60
2023-03-06T10:53:17.134Z,42.40
2023-03-06T10:55:53.226Z,43.81
2023-03-06T10:58:25.082Z,43.41
2023-03-06T11:01:06.946Z,43.82
2023-03-06T11:03:37.728Z,44.52
2023-03-06T11:06:13.166Z,44.07
2023-03-06T11:08:43.203Z,43.87
2023-03-06T11:11:13.854Z,43.96
2023-03-06T11:13:44.148Z,44.85
2023-03-06T11:16:20.477Z,43.53
2023-03-06T11:18:59.187Z,44.03
2023-03-06T11:21:32.181Z,43.59
2023-03-06T11:24:06.923Z,43.82
2023-03-06T11:26:42.784Z,43.19
2023-03-06T11:29:38.171Z,43.88
2023-03-06T11:32:12.665Z,43.53
2023-03-06T11:34:50.418Z,43.42
2023-03-06T11:37:30.952Z,43.89
2023-03-06T11:40:07.766Z,42.93
2023-03-06T11:42:40.842Z,43.25
2023-03-06T11:45:25.427Z,43.74
2023-03-06T11:48:02.839Z,44.10
2023-03-06T11:50:37.056Z,44.67
2023-03-06T11:53:07.826Z,44.92
2023-03-06T11:55:47.484Z,45.71
2023-03-06T11:58:36.467Z,45.71
2023-03-06T12:01:10.025Z,45.95
2023-03-06T12:03:56.938Z,45.91
2023-03-06T12:06:37.821Z,46.33
2023-03-06T12:09:26.921Z,46.65
2023-03-06T12:12:08.364Z,46.59
2023-03-06T12:14:52.279Z,47.04
2023-03-06T12:17:28.167Z,46.05
2023-03-06T12:20:15.011Z,47.30
2023-03-06T12:22:58.167Z,47.45
2023-03-06T12:25:38.148Z,46.98
2023-03-06T12:28:23.632Z,47.94
2023-03-06T12:31:09.293Z,48.01
2023-03-06T12:33:44.848Z,47.41
2023-03-06T12:36:25.474Z,48.10
2023-03-06T12:39:18.573Z,47.52
2023-03-06T12:41:58.947Z,47.64
2023-03-06T12:44:56.626Z,48.00
2023-03-06T12:47:26.661Z,48.06
2023-03-06T12:50:00.036Z,47.43
2023-03-06T12:52:30.728Z,47.96
2023-03-06T12:55:02.455Z,48.25
2023-03-06T12:57:33.089Z,48.32
2023-03-06T13:00:01.165Z,47.89
2023-03-06T13:02:54.587Z,48.85
2023-03-06T13:05:38.126Z,49.58
2023-03-06T13:08:28.663Z,49.34
2023-03-06T13:11:18.742Z,49.32
2023-03-06T13:13:48.913Z,49.82
2023-03-06T13:16:25.636Z,50.72
2023-03-06T13:19:03.128Z,50.23
2023-03-06T13:22:07.870Z,50.93
2023-03-06T13:24:37.630Z,50.45
2023-03-06T13:27:11.687Z,50.42
2023-03-06T13:30:04.147Z,50.90
2023-03-06T13:32:35.404Z,51.19
2023-03-06T13:35:28.274Z,50.80
2023-03-06T13:37:56.736Z,51.01
2023-03-06T13:40:33.643Z,50.72
2023-03-06T13:43:22.650Z,50.51
2023-03-06T13:45:51.807Z,50.84
2023-03-06T13:48:44.344Z,51.15
2023-03-06T13:51:25.011Z,51.55
2023-03-06T13:54:33.486Z,51.35
2023-03-06T13:57:24.251Z,51.84
2023-03-06T14:00:24.926Z,51.18
2023-03-06T14:03:28.291Z,51.79
2023-03-06T14:05:56.733Z,51.34
2023-03-06T14:08:26.414Z,51.60
2023-03-06T14:11:04.021Z,51.21
2023-03-06T14:13:45.435Z,51.43
2023-03-06T14:16:21.345Z,51.24
2023-03-06T14:18:51.686Z,51.86
2023-03-06T14:21:30.996Z,52.87
2023-03-06T14:24:00.941Z,52.60
2023-03-06T14:26:32.912Z,53.91
2023-03-06T14:29:02.301Z,54.12
2023-03-06T14:31:34.040Z,54.70
2023-03-06T14:34:04.935Z,55.75
2023-03-06T14:36:36.717Z,56.10
2023-03-06T14:39:09.836Z,57.04
2023-03-06T14:41:38.245Z,57.33
2023-03-06T14:44:18.117Z,58.08
2023-03-06T14:46:49.975Z,58.81
2023-03-06T14:49:19.953Z,59.26
2023-03-06T14:51:50.241Z,59.34
2023-03-06T14:54:21.114Z,60.22
2023-03-06T14:56:53.158Z,60.33
2023-03-06T14:59:26.278Z,60.23
2023-03-06T15:02:00.610Z,61.42
2023-03-06T15:04:36.666Z,61.39
2023-03-06T15:07:10.584Z,61.52
2023-03-06T15:09:40.424Z,62.29
2023-03-06T15:12:29.980Z,62.64
2023-03-06T15:15:00.395Z,62.68
2023-03-06T15:17:32.287Z,62.58
2023-03-06T15:20:02.143Z,62.83
2023-03-06T15:22:37.918Z,61.94
2023-03-06T15:25:20.716Z,63.43
2023-03-06T15:27:50.887Z,63.45
2023-03-06T15:30:27.878Z,64.06
2023-03-06T15:33:25.062Z,63.51
2023-03-06T15:35:56.996Z,63.35
2023-03-06T15:38:31.043Z,63.56
2023-03-06T15:41:01.067Z,63.73
2023-03-06T15:43:32.565Z,63.81
2023-03-06T15:46:02.337Z,63.38
2023-03-06T15:48:31.774Z,63.36
2023-03-06T15:50:59.931Z,63.09
2023-03-06T15:53:28.516Z,63.32
2023-03-06T15:55:57.581Z,63.57
2023-03-06T15:58:30.404Z,63.31
2023-03-06T16:00:59.062Z,62.93
2023-03-06T16:03:27.411Z,63.06
2023-03-06T16:05:56.929Z,63.23
2023-03-06T16:08:25.113Z,63.23
2023-03-06T16:10:53.343Z,63.34
2023-03-06T16:13:27.621Z,64.12
2023-03-06T16:15:56.228Z,63.89
2023-03-06T16:18:24.215Z,64.19
2023-03-06T16:20:52.375Z,63.92
2023-03-06T16:23:21.759Z,64.40
2023-03-06T16:25:50.925Z,64.58
2023-03-06T16:28:19.302Z,64.59
2023-03-06T16:30:47.547Z,64.55
2023-03-06T16:33:15.708Z,64.37
2023-03-06T16:35:47.344Z,64.59
2023-03-06T16:38:16.416Z,63.84
2023-03-06T16:40:45.949Z,64.40
2023-03-06T16:43:16.130Z,64.25
2023-03-06T16:45:44.826Z,64.32
2023-03-06T16:48:17.212Z,64.42
2023-03-06T16:50:45.744Z,63.47
2023-03-06T16:53:13.963Z,63.36
2023-03-06T16:55:42.655Z,63.70
2023-03-06T16:58:12.155Z,63.90
2023-03-06T17:00:40.456Z,63.31
2023-03-06T17:03:08.590Z,63.51
2023-03-06T17:05:39.393Z,63.60
2023-03-06T17:08:07.635Z,62.40
2023-03-06T17:10:35.934Z,62.82
2023-03-06T17:13:05.138Z,62.42
2023-03-06T17:15:34.763Z,61.99
2023-03-06T17:18:02.871Z,62.55
2023-03-06T17:20:31.105Z,62.22
2023-03-06T17:22:59.188Z,61.93
2023-03-06T17:25:27.603Z,60.79
2023-03-06T17:27:55.644Z,60.75
2023-03-06T17:30:23.805Z,61.18
2023-03-06T17:32:53.707Z,60.77
2023-03-06T17:35:21.755Z,60.32
2023-03-06T17:37:49.875Z,60.06
2023-03-06T17:40:18.198Z,60.07
2023-03-06T17:42:46.267Z,59.42
2023-03-06T17:45:14.408Z,59.79
2023-03-06T17:47:42.496Z,58.75
2023-03-06T17:50:13.096Z,59.17
2023-03-06T17:52:41.241Z,59.37
2023-03-06T17:55:11.313Z,59.09
2023-03-06T17:57:40.218Z,59.24
2023-03-06T18:00:13.894Z,59.26
2023-03-06T18:02:47.382Z,59.13
2023-03-06T18:05:20.822Z,59.25
2023-03-06T18:07:48.993Z,59.40
2023-03-06T18:10:22.163Z,59.28
2023-03-06T18:12:50.469Z,59.56
2023-03-06T18:15:18.983Z,59.17
2023-03-06T18:17:47.429Z,59.19
2023-03-06T18:20:21.698Z,58.82
2023-03-06T18:22:49.873Z,58.63
2023-03-06T18:25:20.706Z,59.02
2023-03-06T18:27:50.916Z,58.62
2023-03-06T18:30:19.394Z,59.58
2023-03-06T18:32:49.197Z,59.76
2023-03-06T18:35:17.857Z,58.77
2023-03-06T18:37:47.322Z,58.83
2023-03-06T18:40:15.785Z,57.98
2023-03-06T18:42:43.855Z,58.07
2023-03-06T18:45:13.270Z,58.69
2023-03-06T18:47:42.109Z,58.55
2023-03-06T18:50:16.403Z,58.45
2023-03-06T18:52:45.164Z,58.33
2023-03-06T18:55:14.500Z,58.38
2023-03-06T18:57:42.626Z,58.44
2023-03-06T19:00:11.842Z,58.80
2023-03-06T19:02:39.965Z,59.03
2023-03-06T19:05:08.790Z,59.32
2023-03-06T19:07:36.774Z,59.06
2023-03-06T19:10:05.605Z,58.60
2023-03-06T19:12:35.731Z,58.78
2023-03-06T19:15:04.703Z,59.29
2023-03-06T19:17:32.777Z,59.18
2023-03-06T19:20:00.820Z,59.68
2023-03-06T19:22:28.837Z,59.42
2023-03-06T19:24:56.905Z,59.58
2023-03-06T19:27:25.080Z,59.51
2023-03-06T19:29:56.820Z,59.15
2023-03-06T19:32:25.140Z,59.24
2023-03-06T19:34:54.456Z,59.13
2023-03-06T19:37:22.523Z,59.45
2023-03-06T19:39:50.553Z,59.30
2023-03-06T19:42:21.514Z,59.86
2023-03-06T19:44:49.618Z,59.14
2023-03-06T19:47:19.045Z,59.12
2023-03-06T19:49:47.203Z,59.04
2023-03-06T19:52:15.722Z,60.01
2023-03-06T19:54:44.119Z,60.14
2023-03-06T19:57:12.347Z,59.69
2023-03-06T19:59:40.414Z,60.67
2023-03-06T20:02:10.737Z,61.09
2023-03-06T20:04:40.488Z,60.79
2023-03-06T20:07:08.826Z,61.03
2023-03-06T20:09:36.874Z,61.23
2023-03-06T20:12:07.807Z,60.18
2023-03-06T20:14:36.321Z,61.60
2023-03-06T20:17:04.496Z,60.73
2023-03-06T20:19:32.778Z,61.50
2023-03-06T20:22:02.236Z,61.19
2023-03-06T20:24:30.283Z,61.05
2023-03-06T20:26:59.529Z,60.95
2023-03-06T20:29:28.485Z,59.84
2023-03-06T20:34:26.714Z,60.79
2023-03-06T20:36:56.855Z,60.97
2023-03-06T20:39:26.231Z,61.96
2023-03-06T20:41:54.882Z,61.71
2023-03-06T20:44:23.191Z,62.32
2023-03-06T20:46:52.051Z,61.95
2023-03-06T20:49:21.052Z,61.14
2023-03-06T20:51:50.136Z,61.72
2023-03-06T20:54:18.616Z,61.23
2023-03-06T20:56:50.701Z,60.84
2023-03-06T20:59:19.987Z,61.85
2023-03-06T21:01:48.371Z,62.54
2023-03-06T21:04:16.934Z,62.64
2023-03-06T21:06:47.123Z,63.07
2023-03-06T21:09:16.980Z,63.72
2023-03-06T21:11:45.530Z,63.70
2023-03-06T21:14:14.962Z,64.07
2023-03-06T21:16:44.204Z,63.75
2023-03-06T21:19:12.825Z,63.72
2023-03-06T21:21:41.003Z,63.80
2023-03-06T21:24:09.348Z,64.01
2023-03-06T21:26:38.106Z,64.00
2023-03-06T21:29:06.192Z,63.94
2023-03-06T21:31:35.908Z,64.53
2023-03-06T21:34:05.545Z,63.81
2023-03-06T21:36:33.658Z,64.45
2023-03-06T21:39:01.976Z,63.41
2023-03-06T21:41:32.286Z,64.07
2023-03-06T21:44:02.018Z,64.15
2023-03-06T21:46:30.986Z,63.36
2023-03-06T21:49:00.990Z,63.67
2023-03-06T21:51:29.387Z,63.23
2023-03-06T21:53:58.603Z,63.90
2023-03-06T21:56:28.594Z,62.76
2023-03-06T21:58:58.349Z,63.10
2023-03-06T22:01:28.708Z,62.87
2023-03-06T22:03:57.014Z,62.77
2023-03-06T22:06:27.780Z,63.18
2023-03-06T22:08:57.405Z,62.79
2023-03-06T22:11:26.954Z,62.95
2023-03-06T22:13:55.066Z,62.89
2023-03-06T22:16:23.411Z,62.55
2023-03-06T22:18:52.700Z,62.28
2023-03-06T22:21:22.452Z,62.80
2023-03-06T22:23:52.098Z,62.23
2023-03-06T22:26:21.041Z,62.40
2023-03-06T22:28:49.160Z,62.83
2023-03-06T22:31:19.323Z,62.55
2023-03-06T22:33:47.664Z,62.69
2023-03-06T22:36:16.956Z,61.92
2023-03-06T22:38:47.081Z,62.14
2023-03-06T22:41:20.175Z,62.06
2023-03-06T22:43:49.189Z,61.87
2023-03-06T22:46:18.986Z,61.55
2023-03-06T22:48:47.140Z,61.38
2023-03-06T22:51:17.252Z,60.99
2023-03-06T22:53:45.328Z,60.48
2023-03-06T22:56:15.442Z,59.75
2023-03-06T22:58:45.757Z,59.40
2023-03-06T23:01:16.026Z,60.47
2023-03-06T23:03:45.724Z,60.38
2023-03-06T23:06:15.748Z,59.98
2023-03-06T23:08:51.091Z,59.74
2023-03-06T23:11:21.581Z,60.11
2023-03-06T23:14:12.170Z,59.51
2023-03-06T23:16:58.982Z,59.78
2023-03-06T23:19:45.654Z,60.00
2023-03-06T23:22:32.316Z,60.27
2023-03-06T23:25:19.112Z,60.75
2023-03-06T23:27:47.101Z,60.79
2023-03-06T23:30:17.463Z,60.87
2023-03-06T23:32:46.098Z,61.08
2023-03-06T23:35:14.469Z,61.31
2023-03-06T23:37:42.447Z,60.89
2023-03-06T23:40:13.725Z,61.02
2023-03-06T23:42:41.769Z,60.64
2023-03-06T23:45:11.218Z,61.12
2023-03-06T23:47:40.713Z,60.69
2023-03-06T23:50:09.647Z,61.37
2023-03-06T23:52:37.682Z,60.74
2023-03-06T23:55:06.785Z,60.72
2023-03-06T23:57:34.883Z,60.87
